Flight Track Log - Related Links

Times and Time Zones

All times are in EDT time to prevent confusion due to time zone crossing. See the TAM3228 flight status page for this flight to view local times or setup timezone preferences in your user account.

Time Position Orientation Groundspeed Altitude Reporting Facility
EDT Latitude Longitude Course Direction KTS MPH feet Rate Location/Type
Wed 09:20:00 PM -20.2831 -47.7729 343° North  Level Estimated
Wed 09:21:00 PM -20.2134 -47.7956 343° North  Level Estimated
Wed 09:22:00 PM -20.1437 -47.8184 343° North  Level Estimated
Wed 09:23:00 PM -20.0739 -47.8410 343° North  Level Estimated
Wed 09:24:00 PM -20.0042 -47.8637 343° North  Level Estimated
Wed 09:25:00 PM -19.9344 -47.8864 343° North  Level Estimated
Wed 09:26:00 PM -19.8647 -47.9090 343° North  Level Estimated
Wed 09:27:00 PM -19.7949 -47.9316 343° North  Level Estimated
Wed 09:28:00 PM -19.7252 -47.9543 343° North  Level Estimated
Wed 09:29:00 PM -19.6554 -47.9768 343° North  Level Estimated
Wed 09:30:00 PM -19.5857 -47.9994 343° North  Level Estimated
Wed 09:31:00 PM -19.5159 -48.0219 343° North  Level Estimated
Wed 09:32:00 PM -19.4461 -48.0445 343° North  Level Estimated
Wed 09:33:00 PM -19.3764 -48.0670 343° North  Level Estimated
Wed 09:34:00 PM -19.3066 -48.0895 343° North  Level Estimated
Wed 09:35:00 PM -19.2368 -48.1119 343° North  Level Estimated
Wed 09:36:00 PM -19.1670 -48.1344 343° North  Level Estimated
Wed 09:37:00 PM -19.0973 -48.1568 343° North  Level Estimated
Wed 09:38:00 PM -19.0275 -48.1792 343° North  Level Estimated
Wed 09:39:00 PM -18.9577 -48.2016 343° North  Level Estimated
Wed 09:40:00 PM -18.8879 -48.2240 343° North  Level Estimated
Wed 09:41:00 PM -18.8828 -48.2256 343° North  Level Estimated
Wed 09:42:00 PM -18.8828 -48.2256 223° Southwest  Level Estimated
Wed 09:43:00 PM -18.8828 -48.2256 223° Southwest  Level Estimated
Wed 09:44:00 PM -18.8828 -48.2256 223° Southwest  Level Estimated
Wed 09:45:00 PM -18.8828 -48.2256 223° Southwest  Level Estimated
Wed 09:46:00 PM -18.8828 -48.2256 223° Southwest  Level Estimated
Wed 09:47:00 PM -18.8828 -48.2256 223° Southwest  Level Estimated
Wed 09:48:00 PM -18.8828 -48.2256 223° Southwest  Level Estimated
Wed 09:49:00 PM -18.8828 -48.2256 223° Southwest  Level Estimated
Wed 09:50:00 PM -18.8828 -48.2256 223° Southwest  Level Estimated
Wed 09:51:00 PM -18.8828 -48.2256 223° Southwest  Level Estimated
Wed 09:52:00 PM -18.8828 -48.2256 223° Southwest  Level Estimated
Wed 09:53:00 PM -18.8828 -48.2256 223° Southwest  Level Estimated
Wed 09:54:00 PM -18.8828 -48.2256 223° Southwest  Level Estimated
Wed 09:55:00 PM -18.8828 -48.2256 223° Southwest  Level Estimated
Wed 09:56:00 PM -18.8828 -48.2256 223° Southwest  Level Estimated

Login

Don't have an account? Register now (free) for customized features, flight alerts, and more!